Search for airport 
image banner adimage banner adimage banner ad
image banner ad

CA75 - Reider Ranch

Located in Potrero, United States

ICAO - CA75, IATA -

Data provided by Airmate  

General information

Coordinates: N34°17'21" W118°44'46"
Elevation is 1045 feet MSL.
Magnetic variation is 13° East
View others Airports in California

Operational data

Special qualification required
Current time UTC:
Current local time:
Weather at : KVNY - Van Nuys ( 25 km )
METAR: KVNY 221251Z AUTO 00000KT 10SM CLR 17/13 A2991 RMK AO2 SLP122 T01670133
TAF: KVNY 221136Z 2212/2312 VRB03KT P6SM SKC FM222000 14008KT P6SM SKC FM230400 VRB03KT P6SM SKC
View NOTAMs / SUP AIP / TFR affecting this airport [VIEW]
Communications frequencies: [VIEW]

Runways:

Airport contact information

Address: Potrero United States

Satellite view of CA75